createdAt,value
2022-11-29T00:00:47.629Z,14.67
2022-11-29T00:05:51.630Z,10.43
2022-11-29T00:10:54.148Z,10.97
2022-11-29T00:16:01.314Z,11.18
2022-11-29T00:21:08.567Z,11.63
2022-11-29T00:26:11.097Z,11.70
2022-11-29T00:31:26.071Z,10.97
2022-11-29T00:36:29.069Z,13.20
2022-11-29T00:41:31.865Z,11.70
2022-11-29T00:46:34.406Z,11.27
2022-11-29T00:51:37.150Z,9.97
2022-11-29T00:56:40.293Z,12.50
2022-11-29T01:01:43.148Z,12.27
2022-11-29T01:06:45.802Z,12.95
2022-11-29T01:11:50.347Z,14.15
2022-11-29T01:16:52.892Z,15.93
2022-11-29T01:21:55.692Z,20.70
2022-11-29T01:26:58.291Z,14.80
2022-11-29T01:32:00.827Z,15.47
2022-11-29T01:37:03.427Z,15.43
2022-11-29T01:42:06.019Z,13.73
2022-11-29T01:47:11.240Z,13.70
2022-11-29T01:52:15.931Z,14.43
2022-11-29T01:57:20.554Z,13.40
2022-11-29T02:02:31.154Z,16.73
2022-11-29T02:07:34.367Z,14.73
2022-11-29T02:12:43.051Z,14.63
2022-11-29T02:18:06.756Z,16.10
2022-11-29T02:23:33.994Z,16.17
2022-11-29T02:29:05.002Z,17.13
2022-11-29T02:34:07.470Z,16.80
2022-11-29T02:39:54.307Z,17.10
2022-11-29T02:45:14.042Z,16.23
2022-11-29T02:50:51.118Z,17.87
2022-11-29T02:56:32.060Z,15.83
2022-11-29T03:02:04.189Z,18.27
2022-11-29T03:07:06.696Z,16.87
2022-11-29T03:12:30.461Z,21.23
2022-11-29T03:17:50.788Z,19.17
2022-11-29T03:23:09.598Z,17.23
2022-11-29T03:28:25.549Z,16.90
2022-11-29T03:33:32.190Z,20.27
2022-11-29T03:38:42.369Z,18.77
2022-11-29T03:44:03.774Z,16.80
2022-11-29T03:49:47.663Z,17.25
2022-11-29T03:55:06.011Z,20.90
2022-11-29T04:00:12.682Z,19.40
2022-11-29T04:05:38.781Z,23.35
2022-11-29T04:10:44.227Z,22.90
2022-11-29T04:16:21.068Z,23.27
2022-11-29T04:21:38.518Z,17.20
2022-11-29T04:27:26.062Z,19.27
2022-11-29T04:32:34.142Z,15.07
2022-11-29T04:38:04.491Z,23.27
2022-11-29T04:43:39.047Z,22.70
2022-11-29T04:49:11.132Z,19.67
2022-11-29T04:54:22.924Z,24.40
2022-11-29T05:05:04.927Z,19.27
2022-11-29T05:10:36.010Z,20.42
2022-11-29T05:16:02.384Z,22.42
2022-11-29T05:21:44.054Z,26.00
2022-11-29T05:27:14.740Z,20.42
2022-11-29T05:32:44.723Z,19.93
2022-11-29T05:37:55.137Z,32.73
2022-11-29T05:43:12.135Z,23.40
2022-11-29T05:48:46.636Z,23.53
2022-11-29T05:54:05.184Z,17.73
2022-11-29T05:59:13.307Z,21.67
2022-11-29T06:04:46.655Z,19.13
2022-11-29T06:10:01.497Z,18.83
2022-11-29T06:15:16.595Z,21.57
2022-11-29T06:20:55.563Z,26.07
2022-11-29T06:26:26.729Z,25.60
2022-11-29T06:31:42.500Z,28.90
2022-11-29T06:36:53.326Z,27.70
2022-11-29T06:41:56.121Z,19.20
2022-11-29T06:46:58.677Z,20.30
2022-11-29T06:52:22.766Z,20.20
2022-11-29T06:57:52.021Z,19.60
2022-11-29T07:03:41.727Z,24.33
2022-11-29T07:08:45.676Z,21.97
2022-11-29T07:13:48.524Z,21.53
2022-11-29T07:19:03.974Z,22.50
2022-11-29T07:24:18.039Z,18.60
2022-11-29T07:29:41.872Z,16.57
2022-11-29T07:35:19.345Z,16.70
2022-11-29T07:40:45.927Z,20.70
2022-11-29T07:45:48.854Z,23.10
2022-11-29T07:50:51.433Z,19.73
2022-11-29T07:55:54.131Z,24.13
2022-11-29T08:00:56.882Z,18.50
2022-11-29T08:05:59.651Z,19.53
2022-11-29T08:11:02.285Z,18.50
2022-11-29T08:16:05.221Z,25.27
2022-11-29T08:21:08.727Z,23.30
2022-11-29T08:26:11.748Z,21.77
2022-11-29T08:31:14.536Z,29.07
2022-11-29T08:36:19.464Z,22.87
2022-11-29T08:41:21.996Z,23.50
2022-11-29T08:46:51.909Z,19.63
2022-11-29T08:52:14.616Z,23.37
2022-11-29T08:57:39.183Z,18.50
2022-11-29T09:02:40.121Z,18.58
2022-11-29T09:07:43.501Z,25.23
2022-11-29T09:12:46.448Z,21.65
2022-11-29T09:17:49.107Z,17.40
2022-11-29T09:22:52.626Z,17.70
2022-11-29T09:27:58.375Z,21.08
2022-11-29T09:33:02.868Z,18.50
2022-11-29T09:38:13.644Z,18.00
2022-11-29T09:43:24.860Z,15.47
2022-11-29T09:48:55.588Z,18.70
2022-11-29T09:54:06.509Z,17.93
2022-11-29T09:59:14.248Z,18.10
2022-11-29T10:04:25.522Z,21.52
2022-11-29T10:09:43.001Z,18.58
2022-11-29T10:15:04.479Z,19.93
2022-11-29T10:20:29.154Z,19.15
2022-11-29T10:25:37.867Z,20.60
2022-11-29T10:30:41.618Z,17.47
2022-11-29T10:35:46.111Z,19.50
2022-11-29T10:40:52.875Z,24.43
2022-11-29T10:45:56.424Z,16.90
2022-11-29T10:51:00.114Z,17.90
2022-11-29T10:56:14.630Z,18.77
2022-11-29T11:01:17.429Z,20.40
2022-11-29T11:06:42.571Z,23.47
2022-11-29T11:11:54.443Z,20.93
2022-11-29T11:17:20.163Z,26.98
2022-11-29T11:22:25.403Z,23.60
2022-11-29T11:27:35.345Z,21.55
2022-11-29T11:32:38.482Z,33.93
2022-11-29T11:37:41.116Z,26.97
2022-11-29T11:42:44.024Z,25.35
2022-11-29T11:47:54.174Z,22.13
2022-11-29T11:53:05.132Z,39.17
2022-11-29T11:58:13.865Z,26.55
2022-11-29T12:03:40.469Z,22.30
2022-11-29T12:08:45.046Z,28.43
2022-11-29T12:13:55.507Z,27.33
2022-11-29T12:19:07.225Z,29.33
2022-11-29T12:24:30.668Z,24.75
2022-11-29T12:29:35.430Z,28.20
2022-11-29T12:35:28.502Z,30.77
2022-11-29T12:40:42.325Z,31.03
2022-11-29T12:46:08.921Z,29.30
2022-11-29T12:51:39.930Z,30.07
2022-11-29T12:56:55.166Z,27.80
2022-11-29T13:02:26.788Z,25.50
2022-11-29T13:08:13.386Z,27.27
2022-11-29T13:13:47.927Z,29.67
2022-11-29T13:18:58.902Z,26.60
2022-11-29T13:24:10.043Z,25.83
2022-11-29T13:29:16.939Z,29.10
2022-11-29T13:34:31.154Z,32.97
2022-11-29T13:40:14.083Z,32.83
2022-11-29T13:45:25.675Z,27.13
2022-11-29T13:50:43.864Z,32.88
2022-11-29T13:55:59.998Z,27.10
2022-11-29T14:01:10.492Z,25.70
2022-11-29T14:06:33.384Z,27.13
2022-11-29T14:11:50.720Z,24.40
2022-11-29T14:16:58.636Z,23.17
2022-11-29T14:22:05.713Z,24.90
2022-11-29T14:27:14.233Z,22.13
2022-11-29T14:32:46.153Z,24.60
2022-11-29T14:38:13.944Z,26.37
2022-11-29T14:43:37.810Z,26.57
2022-11-29T14:49:02.341Z,28.77
2022-11-29T14:54:19.716Z,35.13
2022-11-29T14:59:50.212Z,37.37
2022-11-29T15:04:57.023Z,26.97
2022-11-29T15:10:05.358Z,26.17
2022-11-29T15:15:21.964Z,26.93
2022-11-29T15:20:43.053Z,31.47
2022-11-29T15:25:54.132Z,28.90
2022-11-29T15:31:09.822Z,27.27
2022-11-29T15:36:21.712Z,30.13
2022-11-29T15:41:31.792Z,28.70
2022-11-29T15:46:35.886Z,34.30
2022-11-29T15:51:39.641Z,30.27
2022-11-29T15:56:55.995Z,34.67
2022-11-29T16:02:02.813Z,29.37
2022-11-29T16:07:06.625Z,30.63
2022-11-29T16:12:15.296Z,28.10
2022-11-29T16:17:20.836Z,25.90
2022-11-29T16:22:24.414Z,29.63
2022-11-29T16:27:28.216Z,32.53
2022-11-29T16:32:34.129Z,35.00
2022-11-29T16:37:40.650Z,28.13
2022-11-29T16:43:06.482Z,30.63
2022-11-29T16:48:27.737Z,28.53
2022-11-29T16:53:44.327Z,18.60
2022-11-29T16:59:26.019Z,28.47
2022-11-29T17:04:24.317Z,26.67
2022-11-29T17:09:30.922Z,24.63
2022-11-29T17:14:33.550Z,30.77
2022-11-29T17:19:36.170Z,28.00
2022-11-29T17:24:44.778Z,26.73
2022-11-29T17:34:52.949Z,28.43
2022-11-29T17:39:56.830Z,33.77
2022-11-29T17:45:00.186Z,29.37
2022-11-29T17:50:02.866Z,31.50
2022-11-29T17:55:06.593Z,30.97
2022-11-29T18:00:12.990Z,28.40
2022-11-29T18:05:15.640Z,47.80
2022-11-29T18:10:18.311Z,28.77
2022-11-29T18:15:21.006Z,35.17
2022-11-29T18:20:23.679Z,29.47
2022-11-29T18:25:41.631Z,30.63
2022-11-29T18:30:44.235Z,25.77
2022-11-29T18:35:47.398Z,33.67
2022-11-29T18:40:49.990Z,30.27
2022-11-29T18:45:53.734Z,33.67
2022-11-29T18:51:01.830Z,30.50
2022-11-29T18:56:10.278Z,26.60
2022-11-29T19:01:18.439Z,32.40
2022-11-29T19:06:31.768Z,26.07
2022-11-29T19:11:40.335Z,26.63
2022-11-29T19:16:45.780Z,26.17
2022-11-29T19:21:48.763Z,28.73
2022-11-29T19:26:51.390Z,34.87
2022-11-29T19:31:54.154Z,28.27
2022-11-29T19:36:56.761Z,29.47
2022-11-29T19:42:01.394Z,27.50
2022-11-29T19:47:04.106Z,27.80
2022-11-29T19:52:07.050Z,29.43
2022-11-29T19:57:10.092Z,27.90
2022-11-29T20:02:12.985Z,26.37
2022-11-29T20:07:15.588Z,31.93
2022-11-29T20:12:18.527Z,32.57
2022-11-29T20:17:22.063Z,30.97
2022-11-29T20:22:27.293Z,29.77
2022-11-29T20:27:29.968Z,29.90
2022-11-29T20:32:32.692Z,29.40
2022-11-29T20:37:45.733Z,31.40
2022-11-29T20:42:57.039Z,32.93
2022-11-29T20:48:13.149Z,27.80
2022-11-29T20:53:31.526Z,24.43
2022-11-29T20:58:34.681Z,24.63
2022-11-29T21:03:37.469Z,22.27
2022-11-29T21:08:40.079Z,23.53
2022-11-29T21:13:43.361Z,23.93
2022-11-29T21:18:48.470Z,25.80
2022-11-29T21:23:59.513Z,25.00
2022-11-29T21:29:15.791Z,23.93
2022-11-29T21:34:19.285Z,27.40
2022-11-29T21:39:22.699Z,26.37
2022-11-29T21:44:25.354Z,30.47
2022-11-29T21:49:28.357Z,29.80
2022-11-29T21:54:30.891Z,28.37
2022-11-29T21:59:33.446Z,34.67
2022-11-29T22:04:35.966Z,27.87
2022-11-29T22:09:38.672Z,25.53
2022-11-29T22:14:41.177Z,30.30
2022-11-29T22:19:43.674Z,25.83
2022-11-29T22:24:46.351Z,27.57
2022-11-29T22:29:49.531Z,27.93
2022-11-29T22:34:52.068Z,29.73
2022-11-29T22:39:54.614Z,27.13
2022-11-29T22:44:57.168Z,29.97
2022-11-29T22:49:59.737Z,24.77
2022-11-29T22:55:05.028Z,21.87
2022-11-29T23:00:08.715Z,26.23
2022-11-29T23:05:11.237Z,24.00
2022-11-29T23:10:13.719Z,23.47
2022-11-29T23:15:16.359Z,25.73
2022-11-29T23:20:18.864Z,24.63
2022-11-29T23:25:21.388Z,21.00
2022-11-29T23:30:24.040Z,22.23
2022-11-29T23:35:26.908Z,26.37
2022-11-29T23:40:29.514Z,26.60
2022-11-29T23:45:36.307Z,25.63
2022-11-29T23:50:38.898Z,26.60
2022-11-29T23:55:42.382Z,23.90
